Time;durP1;ratioP1;P1;durP2;ratioP2;P2;SDS_P1;SDS_P2;PMS_P1;PMS_P2;Temp;Humidity;BMP_temperature;BMP_pressure;BME280_temperature;BME280_humidity;BME280_pressure;Samples;Min_cycle;Max_cycle;Signal;HPM_P1;HPM_P2
2023/12/18 00:00:13;;;;;;;42.13;12.35;;;;;;;;;;5115086;28;20449;-73
2023/12/18 00:02:39;;;;;;;60.78;13.88;;;;;;;;;;5114881;28;20080;-73
2023/12/18 00:05:06;;;;;;;39.90;11.77;;;;;;;;;;5114964;28;20031;-73
2023/12/18 00:07:33;;;;;;;48.97;13.00;;;;;;;;;;5114808;28;20164;-72
2023/12/18 00:09:59;;;;;;;44.58;13.48;;;;;;;;;;5114586;28;20016;-73
2023/12/18 00:12:25;;;;;;;42.78;13.18;;;;;;;;;;5114779;28;20050;-73
2023/12/18 00:14:52;;;;;;;43.03;14.02;;;;;;;;;;5115334;28;20016;-73
2023/12/18 00:17:18;;;;;;;52.42;14.00;;;;;;;;;;5114812;28;20363;-73
2023/12/18 00:19:44;;;;;;;52.78;14.63;;;;;;;;;;5114554;28;20020;-73
2023/12/18 00:22:10;;;;;;;60.88;15.55;;;;;;;;;;5114678;28;20023;-73
2023/12/18 00:24:36;;;;;;;49.30;14.73;;;;;;;;;;5114640;28;20051;-73
2023/12/18 00:27:02;;;;;;;52.20;15.70;;;;;;;;;;5114391;28;20311;-72
2023/12/18 00:29:28;;;;;;;53.15;15.13;;;;;;;;;;5114369;28;20016;-73
2023/12/18 00:31:54;;;;;;;45.75;15.15;;;;;;;;;;5114139;28;20139;-73
2023/12/18 00:34:20;;;;;;;50.28;14.75;;;;;;;;;;5114928;28;20131;-74
2023/12/18 00:36:46;;;;;;;45.50;15.57;;;;;;;;;;5114688;28;20024;-73
2023/12/18 00:39:15;;;;;;;53.17;15.23;;;;;;;;;;5114338;28;20360;-73
2023/12/18 00:41:41;;;;;;;52.38;16.05;;;;;;;;;;5113993;28;20016;-73
2023/12/18 00:44:07;;;;;;;53.28;15.98;;;;;;;;;;5114058;28;20030;-74
2023/12/18 00:46:33;;;;;;;46.10;15.77;;;;;;;;;;5114114;28;20024;-73
2023/12/18 00:48:59;;;;;;;47.28;16.00;;;;;;;;;;5114016;28;20030;-73
2023/12/18 00:51:25;;;;;;;52.28;16.58;;;;;;;;;;5112434;28;20038;-72
2023/12/18 00:53:51;;;;;;;51.30;16.67;;;;;;;;;;5113949;28;20020;-72
2023/12/18 00:56:17;;;;;;;58.60;16.60;;;;;;;;;;5114126;28;20080;-74
2023/12/18 00:58:43;;;;;;;51.22;17.33;;;;;;;;;;5114303;28;20111;-73
2023/12/18 01:01:10;;;;;;;59.67;17.70;;;;;;;;;;5110212;28;20035;-73
2023/12/18 01:03:37;;;;;;;58.55;17.48;;;;;;;;;;5106049;28;20047;-73
2023/12/18 01:06:05;;;;;;;58.30;16.85;;;;;;;;;;5101525;28;20042;-73
2023/12/18 01:08:31;;;;;;;49.78;16.27;;;;;;;;;;5093112;28;20269;-74
2023/12/18 01:10:57;;;;;;;60.10;18.38;;;;;;;;;;5092091;28;20398;-72
2023/12/18 01:13:23;;;;;;;46.28;16.30;;;;;;;;;;5109379;28;20038;-73
2023/12/18 01:15:49;;;;;;;57.00;17.75;;;;;;;;;;5108075;28;20016;-73
2023/12/18 01:18:15;;;;;;;55.60;18.02;;;;;;;;;;5092865;28;20396;-72
2023/12/18 01:20:41;;;;;;;60.88;17.25;;;;;;;;;;5092282;28;20028;-73
2023/12/18 01:23:07;;;;;;;58.55;16.65;;;;;;;;;;5092619;28;20032;-73
2023/12/18 01:25:33;;;;;;;53.60;17.65;;;;;;;;;;5092838;28;20028;-73
2023/12/18 01:27:59;;;;;;;57.85;18.38;;;;;;;;;;5093241;28;20039;-72
2023/12/18 01:30:26;;;;;;;45.55;16.52;;;;;;;;;;5092667;28;20024;-73
2023/12/18 01:32:52;;;;;;;48.40;17.23;;;;;;;;;;5092167;28;20099;-72
2023/12/18 01:35:18;;;;;;;53.35;16.77;;;;;;;;;;5092255;28;20555;-72
2023/12/18 01:37:44;;;;;;;54.38;16.98;;;;;;;;;;5092547;28;20016;-73
2023/12/18 01:40:10;;;;;;;62.97;18.55;;;;;;;;;;5091974;28;20391;-73
2023/12/18 01:42:37;;;;;;;56.33;17.33;;;;;;;;;;5092382;28;20162;-74
2023/12/18 01:45:03;;;;;;;57.58;17.35;;;;;;;;;;5092775;28;20332;-73
2023/12/18 01:47:29;;;;;;;59.35;17.63;;;;;;;;;;5092632;28;20024;-73
2023/12/18 01:49:55;;;;;;;54.03;17.42;;;;;;;;;;5092280;28;20544;-74
2023/12/18 01:52:21;;;;;;;49.47;16.13;;;;;;;;;;5091806;28;20024;-73
2023/12/18 01:54:47;;;;;;;50.13;16.15;;;;;;;;;;5092456;28;20023;-73
2023/12/18 01:57:15;;;;;;;59.05;18.33;;;;;;;;;;5092266;28;20069;-72
2023/12/18 01:59:41;;;;;;;49.55;16.55;;;;;;;;;;5091653;28;20035;-73
2023/12/18 02:02:07;;;;;;;57.70;16.55;;;;;;;;;;5092052;28;20031;-74
2023/12/18 02:04:33;;;;;;;56.85;16.65;;;;;;;;;;5092016;28;20028;-73
2023/12/18 02:07:01;;;;;;;62.85;16.92;;;;;;;;;;5091934;28;20027;-74
2023/12/18 02:09:27;;;;;;;52.88;15.75;;;;;;;;;;5091354;28;20059;-73
2023/12/18 02:11:53;;;;;;;55.10;16.83;;;;;;;;;;5091905;28;20509;-72
2023/12/18 02:14:19;;;;;;;55.75;16.98;;;;;;;;;;5091939;28;20028;-72
2023/12/18 02:16:45;;;;;;;56.10;17.35;;;;;;;;;;5092603;28;20454;-72
2023/12/18 02:19:41;;;;;;;55.15;16.17;;;;;;;;;;5091124;28;20016;-72
2023/12/18 02:22:07;;;;;;;55.95;16.70;;;;;;;;;;5078583;28;20425;-73
2023/12/18 02:24:33;;;;;;;67.97;17.67;;;;;;;;;;5104264;28;20023;-73
2023/12/18 02:26:59;;;;;;;61.35;17.42;;;;;;;;;;5112201;28;20032;-72
2023/12/18 02:29:25;;;;;;;59.17;17.52;;;;;;;;;;5111394;28;20473;-71
2023/12/18 02:31:51;;;;;;;58.92;17.67;;;;;;;;;;5111879;28;20069;-73
2023/12/18 02:34:17;;;;;;;66.88;20.42;;;;;;;;;;5112261;28;20059;-73
2023/12/18 02:36:43;;;;;;;57.30;17.88;;;;;;;;;;5112695;28;20020;-78
2023/12/18 02:39:09;;;;;;;56.92;17.75;;;;;;;;;;5112277;28;20050;-74
2023/12/18 02:41:35;;;;;;;57.53;19.73;;;;;;;;;;5112556;28;20020;-74
2023/12/18 02:44:01;;;;;;;63.97;19.52;;;;;;;;;;5112281;28;20155;-74
2023/12/18 02:46:27;;;;;;;64.97;19.52;;;;;;;;;;5112654;28;20059;-73
2023/12/18 02:48:53;;;;;;;56.33;19.38;;;;;;;;;;5112329;28;20096;-76
2023/12/18 02:51:19;;;;;;;48.03;18.83;;;;;;;;;;5112028;28;20470;-77
2023/12/18 02:53:45;;;;;;;54.55;20.52;;;;;;;;;;5113545;28;20057;-77
2023/12/18 02:56:13;;;;;;;69.28;20.73;;;;;;;;;;5112465;28;20054;-74
2023/12/18 02:58:39;;;;;;;58.20;19.90;;;;;;;;;;5112079;28;20096;-76
2023/12/18 03:01:05;;;;;;;60.40;20.67;;;;;;;;;;5112147;28;20028;-77
2023/12/18 03:03:31;;;;;;;59.78;20.80;;;;;;;;;;5113906;28;20035;-78
2023/12/18 03:05:57;;;;;;;70.20;20.52;;;;;;;;;;5115355;28;20028;-77
2023/12/18 03:08:22;;;;;;;61.47;22.20;;;;;;;;;;5119501;28;20052;-76
2023/12/18 03:10:48;;;;;;;69.18;20.48;;;;;;;;;;5133780;28;20048;-76
2023/12/18 03:13:14;;;;;;;62.30;19.30;;;;;;;;;;5128736;28;20368;-75
2023/12/18 03:15:40;;;;;;;67.13;20.13;;;;;;;;;;5130783;28;20035;-75
2023/12/18 03:18:06;;;;;;;59.33;19.67;;;;;;;;;;5123511;28;20043;-77
2023/12/18 03:20:32;;;;;;;75.88;19.80;;;;;;;;;;5115028;28;20395;-76
2023/12/18 03:22:58;;;;;;;66.05;20.60;;;;;;;;;;5114191;28;20028;-73
2023/12/18 03:25:24;;;;;;;49.38;18.90;;;;;;;;;;5112012;28;20024;-73
2023/12/18 03:27:50;;;;;;;58.72;20.38;;;;;;;;;;5112846;28;20019;-74
2023/12/18 03:30:16;;;;;;;62.35;20.05;;;;;;;;;;5113769;28;20028;-74
2023/12/18 03:32:42;;;;;;;61.80;20.30;;;;;;;;;;5116079;28;20069;-73
2023/12/18 03:35:08;;;;;;;64.32;19.88;;;;;;;;;;5117183;28;20050;-78
2023/12/18 03:37:34;;;;;;;69.10;20.50;;;;;;;;;;5114071;28;20028;-74
2023/12/18 03:40:01;;;;;;;54.85;19.52;;;;;;;;;;5106467;28;20035;-75
2023/12/18 03:42:27;;;;;;;55.97;20.17;;;;;;;;;;5098749;28;20347;-75
2023/12/18 03:44:53;;;;;;;65.45;20.75;;;;;;;;;;5099595;28;20027;-76
2023/12/18 03:47:19;;;;;;;56.45;19.98;;;;;;;;;;5102380;28;20020;-76
2023/12/18 03:49:45;;;;;;;50.47;21.73;;;;;;;;;;5117707;28;20095;-75
2023/12/18 03:52:11;;;;;;;59.38;22.20;;;;;;;;;;5118132;28;20060;-74
2023/12/18 03:54:37;;;;;;;62.80;21.38;;;;;;;;;;5117556;28;20027;-76
2023/12/18 03:57:03;;;;;;;66.45;20.83;;;;;;;;;;5111312;28;20095;-76
2023/12/18 03:59:29;;;;;;;63.35;21.98;;;;;;;;;;5109388;28;20078;-76
2023/12/18 04:01:55;;;;;;;68.45;21.55;;;;;;;;;;5112754;28;20038;-76
2023/12/18 04:04:21;;;;;;;65.32;22.92;;;;;;;;;;5111577;28;20062;-75
2023/12/18 04:06:47;;;;;;;67.30;21.63;;;;;;;;;;5104513;28;20024;-75
2023/12/18 04:09:13;;;;;;;53.67;21.40;;;;;;;;;;5107817;28;20036;-75
2023/12/18 04:11:39;;;;;;;72.93;21.77;;;;;;;;;;5117832;28;20053;-75
2023/12/18 04:14:05;;;;;;;73.65;21.75;;;;;;;;;;5122436;28;20478;-73
2023/12/18 04:16:31;;;;;;;72.30;22.42;;;;;;;;;;5119208;28;20028;-75
2023/12/18 04:18:57;;;;;;;78.50;23.52;;;;;;;;;;5111780;28;20020;-74
2023/12/18 04:21:23;;;;;;;69.50;22.52;;;;;;;;;;5100606;28;20016;-74
2023/12/18 04:23:49;;;;;;;63.70;21.83;;;;;;;;;;5097192;28;20024;-73
2023/12/18 04:26:15;;;;;;;64.55;21.83;;;;;;;;;;5092913;28;20107;-73
2023/12/18 04:28:41;;;;;;;56.30;21.73;;;;;;;;;;5093868;28;20440;-73
2023/12/18 04:31:07;;;;;;;61.88;23.08;;;;;;;;;;5095721;28;20028;-74
2023/12/18 04:33:33;;;;;;;65.50;21.98;;;;;;;;;;5099920;28;20046;-74
2023/12/18 04:36:00;;;;;;;57.50;22.15;;;;;;;;;;5106618;28;20041;-75
2023/12/18 04:38:27;;;;;;;63.00;22.65;;;;;;;;;;5112266;28;20020;-74
2023/12/18 04:40:53;;;;;;;68.38;23.33;;;;;;;;;;5101372;28;20386;-73
2023/12/18 04:43:19;;;;;;;63.03;23.48;;;;;;;;;;5098467;28;20047;-74
2023/12/18 04:45:45;;;;;;;70.05;24.42;;;;;;;;;;5099070;28;20020;-75
2023/12/18 04:48:11;;;;;;;73.68;26.02;;;;;;;;;;5115681;28;20394;-73
2023/12/18 04:50:37;;;;;;;60.17;23.98;;;;;;;;;;5108316;28;20028;-74
2023/12/18 04:53:03;;;;;;;71.78;25.58;;;;;;;;;;5106782;28;20098;-73
2023/12/18 04:55:29;;;;;;;60.53;25.63;;;;;;;;;;5109676;28;20024;-73
2023/12/18 04:57:55;;;;;;;71.80;26.92;;;;;;;;;;5102478;28;20493;-73
2023/12/18 05:00:21;;;;;;;67.78;27.80;;;;;;;;;;5104940;28;20114;-74
2023/12/18 05:02:47;;;;;;;65.22;27.50;;;;;;;;;;5116039;28;20020;-74
2023/12/18 05:05:13;;;;;;;68.82;28.02;;;;;;;;;;5114929;28;20543;-74
2023/12/18 05:07:39;;;;;;;77.20;30.15;;;;;;;;;;5114293;28;20111;-74
2023/12/18 05:10:05;;;;;;;71.80;29.45;;;;;;;;;;5113347;28;20046;-73
2023/12/18 05:12:31;;;;;;;85.22;32.20;;;;;;;;;;5113517;28;20023;-73
2023/12/18 05:14:57;;;;;;;76.40;31.58;;;;;;;;;;5113754;28;20024;-72
2023/12/18 05:17:24;;;;;;;69.25;32.05;;;;;;;;;;5112184;28;20103;-77
2023/12/18 05:19:49;;;;;;;91.72;34.35;;;;;;;;;;5113190;28;20027;-74
2023/12/18 05:22:15;;;;;;;72.32;32.25;;;;;;;;;;5113279;28;20479;-73
2023/12/18 05:24:41;;;;;;;64.18;31.77;;;;;;;;;;5113685;28;20111;-75
2023/12/18 05:27:07;;;;;;;76.40;32.88;;;;;;;;;;5113336;28;20023;-74
2023/12/18 05:29:33;;;;;;;76.13;33.53;;;;;;;;;;5113213;28;20051;-73
2023/12/18 05:31:59;;;;;;;78.15;33.13;;;;;;;;;;5112779;28;20055;-74
2023/12/18 05:34:25;;;;;;;75.03;33.75;;;;;;;;;;5113198;28;20027;-73
2023/12/18 05:36:51;;;;;;;70.70;33.33;;;;;;;;;;5110292;28;20034;-76
2023/12/18 05:39:17;;;;;;;84.57;34.10;;;;;;;;;;5112427;28;20038;-77
2023/12/18 05:41:43;;;;;;;86.80;35.22;;;;;;;;;;5097675;28;20046;-77
2023/12/18 05:44:09;;;;;;;70.45;32.80;;;;;;;;;;5098610;28;20059;-74
2023/12/18 05:46:35;;;;;;;69.63;33.85;;;;;;;;;;5096951;28;20028;-76
2023/12/18 05:49:01;;;;;;;75.57;33.45;;;;;;;;;;5103689;28;20030;-74
2023/12/18 05:51:27;;;;;;;72.03;33.00;;;;;;;;;;5109509;28;20390;-76
2023/12/18 05:53:53;;;;;;;71.88;32.85;;;;;;;;;;5109626;28;20023;-75
2023/12/18 05:56:19;;;;;;;67.25;32.40;;;;;;;;;;5093841;28;20382;-77
2023/12/18 05:58:45;;;;;;;75.03;31.50;;;;;;;;;;5112089;28;20091;-73
2023/12/18 06:01:11;;;;;;;79.25;33.30;;;;;;;;;;5092909;28;20021;-74
2023/12/18 06:03:37;;;;;;;73.25;31.17;;;;;;;;;;5091525;28;20065;-74
2023/12/18 06:06:03;;;;;;;79.65;32.90;;;;;;;;;;5091641;28;20028;-74
2023/12/18 06:08:29;;;;;;;68.65;32.08;;;;;;;;;;5091909;28;20020;-73
2023/12/18 06:10:55;;;;;;;72.32;31.52;;;;;;;;;;5091491;28;20035;-73
2023/12/18 06:13:21;;;;;;;69.22;31.55;;;;;;;;;;5091541;28;20092;-73
2023/12/18 06:15:47;;;;;;;75.53;32.53;;;;;;;;;;5091725;28;20080;-73
2023/12/18 06:18:13;;;;;;;70.50;32.72;;;;;;;;;;5091571;28;20028;-72
2023/12/18 06:20:39;;;;;;;73.78;33.22;;;;;;;;;;5091627;28;20111;-77
2023/12/18 06:23:05;;;;;;;79.70;33.60;;;;;;;;;;5102705;28;20027;-76
2023/12/18 06:25:31;;;;;;;83.30;33.47;;;;;;;;;;5107304;28;20028;-75
2023/12/18 06:27:57;;;;;;;76.63;34.97;;;;;;;;;;5098144;28;20159;-75
2023/12/18 06:30:23;;;;;;;83.55;35.03;;;;;;;;;;5093870;28;20039;-75
2023/12/18 06:32:49;;;;;;;91.88;35.50;;;;;;;;;;5095432;28;20020;-75
2023/12/18 06:35:15;;;;;;;95.45;37.08;;;;;;;;;;5092528;28;20126;-74
2023/12/18 06:37:42;;;;;;;81.40;34.05;;;;;;;;;;5102582;28;20024;-76
2023/12/18 06:40:09;;;;;;;83.72;36.78;;;;;;;;;;5100707;28;20028;-75
2023/12/18 06:42:34;;;;;;;98.43;38.00;;;;;;;;;;5102248;28;20072;-74
2023/12/18 06:45:00;;;;;;;88.97;35.15;;;;;;;;;;5103093;28;20028;-75
2023/12/18 06:47:26;;;;;;;84.38;35.72;;;;;;;;;;5104715;28;20023;-76
2023/12/18 06:49:52;;;;;;;79.72;34.92;;;;;;;;;;5107232;28;20133;-75
2023/12/18 06:52:18;;;;;;;83.35;35.78;;;;;;;;;;5106378;28;20394;-75
2023/12/18 06:54:44;;;;;;;85.05;35.20;;;;;;;;;;5109771;28;20026;-75
2023/12/18 06:57:11;;;;;;;89.78;37.30;;;;;;;;;;5101155;28;20028;-75
2023/12/18 06:59:38;;;;;;;85.20;36.85;;;;;;;;;;5097397;28;20020;-74
2023/12/18 07:02:04;;;;;;;88.00;36.00;;;;;;;;;;5093244;28;20383;-75
2023/12/18 07:04:30;;;;;;;83.35;36.78;;;;;;;;;;5100046;28;20012;-75
2023/12/18 07:06:56;;;;;;;96.53;37.22;;;;;;;;;;5112920;28;20023;-75
2023/12/18 07:09:23;;;;;;;91.53;38.10;;;;;;;;;;5106318;28;20113;-76
2023/12/18 07:11:49;;;;;;;119.43;38.53;;;;;;;;;;5113515;28;20020;-74
2023/12/18 07:14:15;;;;;;;105.78;39.47;;;;;;;;;;5096688;28;20059;-75
2023/12/18 07:16:41;;;;;;;98.35;39.83;;;;;;;;;;5103535;28;20020;-75
2023/12/18 07:19:07;;;;;;;105.93;39.92;;;;;;;;;;5112880;28;20016;-73
2023/12/18 07:21:33;;;;;;;101.60;40.25;;;;;;;;;;5115641;28;20662;-74
2023/12/18 07:23:59;;;;;;;99.60;40.35;;;;;;;;;;5115578;28;20103;-78
2023/12/18 07:26:25;;;;;;;88.57;38.88;;;;;;;;;;5115760;28;20063;-73
2023/12/18 07:28:51;;;;;;;111.53;41.92;;;;;;;;;;5115232;28;20019;-73
2023/12/18 07:31:18;;;;;;;97.97;40.15;;;;;;;;;;5115079;28;20028;-72
2023/12/18 07:33:44;;;;;;;90.22;40.90;;;;;;;;;;5115374;28;20106;-72
2023/12/18 07:36:10;;;;;;;96.82;40.55;;;;;;;;;;5115315;28;20045;-72
2023/12/18 07:38:36;;;;;;;98.07;40.25;;;;;;;;;;5114988;28;20487;-76
2023/12/18 07:41:05;;;;;;;95.13;39.90;;;;;;;;;;5114460;28;20090;-76
2023/12/18 07:43:31;;;;;;;87.90;39.58;;;;;;;;;;5115062;28;20031;-72
2023/12/18 07:45:57;;;;;;;94.38;40.50;;;;;;;;;;5115070;28;20039;-73
2023/12/18 07:48:24;;;;;;;110.80;44.35;;;;;;;;;;5115099;28;20028;-74
2023/12/18 07:50:50;;;;;;;105.80;42.30;;;;;;;;;;5114989;28;20023;-74
2023/12/18 07:53:16;;;;;;;125.20;43.28;;;;;;;;;;5114707;28;20434;-73
2023/12/18 07:55:42;;;;;;;103.20;42.10;;;;;;;;;;5114301;28;20020;-72
2023/12/18 07:58:08;;;;;;;105.15;42.33;;;;;;;;;;5114412;28;20378;-73
2023/12/18 08:00:34;;;;;;;110.30;45.38;;;;;;;;;;5093751;28;20031;-71
2023/12/18 08:03:04;;;;;;;103.47;45.75;;;;;;;;;;5093895;28;20117;-74
2023/12/18 08:05:30;;;;;;;111.28;46.95;;;;;;;;;;5112544;28;20024;-78
2023/12/18 08:07:56;;;;;;;107.97;46.42;;;;;;;;;;5114843;28;20098;-74
2023/12/18 08:10:22;;;;;;;119.38;49.67;;;;;;;;;;5112920;28;20024;-74
2023/12/18 08:12:49;;;;;;;117.40;47.20;;;;;;;;;;5113492;28;20401;-76
2023/12/18 08:15:15;;;;;;;112.45;47.33;;;;;;;;;;5098321;28;20020;-73
2023/12/18 08:17:41;;;;;;;141.18;50.85;;;;;;;;;;5092311;28;20024;-73
2023/12/18 08:20:09;;;;;;;106.80;46.20;;;;;;;;;;5108046;28;20022;-73
2023/12/18 08:22:35;;;;;;;115.20;46.00;;;;;;;;;;5115059;28;20035;-73
2023/12/18 08:25:02;;;;;;;111.25;45.83;;;;;;;;;;5114934;28;20023;-74
2023/12/18 08:27:33;;;;;;;112.78;47.65;;;;;;;;;;5114188;27;20037;-75
2023/12/18 08:29:59;;;;;;;119.03;47.22;;;;;;;;;;5100515;28;20035;-74
2023/12/18 08:32:25;;;;;;;112.00;46.33;;;;;;;;;;5093489;28;20036;-74
2023/12/18 08:34:51;;;;;;;119.05;46.50;;;;;;;;;;5104610;28;20031;-74
2023/12/18 08:37:18;;;;;;;122.55;47.20;;;;;;;;;;5114010;28;20028;-74
2023/12/18 08:39:44;;;;;;;114.55;46.83;;;;;;;;;;5112974;28;20092;-73
2023/12/18 08:42:10;;;;;;;137.07;50.80;;;;;;;;;;5113846;28;20398;-72
2023/12/18 08:44:36;;;;;;;118.00;47.47;;;;;;;;;;5113697;28;20020;-72
2023/12/18 08:47:02;;;;;;;114.60;48.50;;;;;;;;;;5112542;28;20421;-73
2023/12/18 08:49:28;;;;;;;122.55;49.83;;;;;;;;;;5112927;28;20019;-74
2023/12/18 08:51:54;;;;;;;129.77;49.60;;;;;;;;;;5113137;28;20091;-73
2023/12/18 08:54:20;;;;;;;127.88;50.10;;;;;;;;;;5113178;28;20032;-74
2023/12/18 08:56:47;;;;;;;135.43;51.55;;;;;;;;;;5113301;28;20043;-74
2023/12/18 08:59:13;;;;;;;127.88;50.85;;;;;;;;;;5113701;28;20394;-76
2023/12/18 09:01:39;;;;;;;127.20;51.05;;;;;;;;;;5114464;28;20390;-73
2023/12/18 09:04:06;;;;;;;136.82;50.15;;;;;;;;;;5114209;28;20028;-73
2023/12/18 09:06:35;;;;;;;115.53;49.85;;;;;;;;;;5113732;28;20032;-73
2023/12/18 09:09:01;;;;;;;122.60;51.65;;;;;;;;;;5122471;28;20027;-73
2023/12/18 09:11:29;;;;;;;129.02;50.95;;;;;;;;;;5115568;28;20015;-77
2023/12/18 09:13:55;;;;;;;147.13;52.47;;;;;;;;;;5113275;28;20048;-73
2023/12/18 09:16:22;;;;;;;135.60;50.95;;;;;;;;;;5112557;28;20629;-74
2023/12/18 09:18:47;;;;;;;134.57;52.45;;;;;;;;;;5114062;28;20027;-73
2023/12/18 09:21:13;;;;;;;130.27;49.55;;;;;;;;;;5113215;28;20597;-74
2023/12/18 09:23:41;;;;;;;135.13;50.95;;;;;;;;;;5113789;28;20020;-74
2023/12/18 09:26:07;;;;;;;128.27;49.85;;;;;;;;;;5114307;28;20114;-75
2023/12/18 09:28:33;;;;;;;134.40;50.35;;;;;;;;;;5113514;28;20016;-79
2023/12/18 09:30:59;;;;;;;123.32;51.22;;;;;;;;;;5113835;28;20513;-75
2023/12/18 09:33:25;;;;;;;137.73;51.63;;;;;;;;;;5113472;28;20114;-73
2023/12/18 09:35:51;;;;;;;135.93;52.38;;;;;;;;;;5112940;28;20040;-74
2023/12/18 09:38:17;;;;;;;137.35;51.80;;;;;;;;;;5113075;28;20146;-75
2023/12/18 09:40:46;;;;;;;133.50;49.95;;;;;;;;;;5112793;28;20042;-74
2023/12/18 09:43:18;;;;;;;133.18;51.58;;;;;;;;;;5113030;28;20486;-74
2023/12/18 09:45:51;;;;;;;119.30;48.85;;;;;;;;;;5113807;28;20047;-73
2023/12/18 09:48:18;;;;;;;123.72;48.13;;;;;;;;;;5113096;28;20024;-74
2023/12/18 09:50:45;;;;;;;118.45;47.88;;;;;;;;;;5114535;28;20076;-77
2023/12/18 09:53:13;;;;;;;129.38;47.55;;;;;;;;;;5113295;27;20022;-73
2023/12/18 09:55:39;;;;;;;119.20;47.22;;;;;;;;;;5112410;28;20466;-77
2023/12/18 09:58:06;;;;;;;129.52;47.25;;;;;;;;;;5114951;28;20032;-76
2023/12/18 10:00:32;;;;;;;119.40;48.60;;;;;;;;;;5113089;28;20251;-77
2023/12/18 10:02:59;;;;;;;122.72;48.63;;;;;;;;;;5113266;28;20035;-78
2023/12/18 10:05:25;;;;;;;127.85;46.90;;;;;;;;;;5114319;28;20498;-75
2023/12/18 10:07:52;;;;;;;126.60;47.65;;;;;;;;;;5114400;28;20039;-76
2023/12/18 10:10:18;;;;;;;108.95;45.55;;;;;;;;;;5112474;28;20023;-77
2023/12/18 10:12:44;;;;;;;115.53;43.17;;;;;;;;;;5112757;28;20023;-74
2023/12/18 10:15:11;;;;;;;121.90;45.40;;;;;;;;;;5112530;28;20489;-74
2023/12/18 10:17:43;;;;;;;121.72;44.50;;;;;;;;;;5112694;28;20030;-73
2023/12/18 10:20:11;;;;;;;109.55;42.78;;;;;;;;;;5111693;28;20488;-74
2023/12/18 10:22:37;;;;;;;128.32;50.08;;;;;;;;;;5112831;28;20023;-73
2023/12/18 10:25:04;;;;;;;112.65;43.40;;;;;;;;;;5113999;28;20046;-74
2023/12/18 10:27:33;;;;;;;116.85;43.22;;;;;;;;;;5113071;28;20066;-76
2023/12/18 10:30:00;;;;;;;116.55;44.15;;;;;;;;;;5113357;28;20046;-72
2023/12/18 10:32:29;;;;;;;100.28;41.05;;;;;;;;;;5111975;28;20023;-75
2023/12/18 10:34:56;;;;;;;116.10;43.40;;;;;;;;;;5112776;28;20024;-73
2023/12/18 10:37:25;;;;;;;104.80;42.38;;;;;;;;;;5112136;28;20095;-74
2023/12/18 10:39:51;;;;;;;120.65;43.72;;;;;;;;;;5110895;28;20084;-73
2023/12/18 10:42:22;;;;;;;93.18;41.25;;;;;;;;;;5111244;28;20055;-74
2023/12/18 10:44:48;;;;;;;120.75;43.00;;;;;;;;;;5111595;28;20026;-72
2023/12/18 10:47:16;;;;;;;104.15;41.33;;;;;;;;;;5113595;28;20071;-73
2023/12/18 10:49:43;;;;;;;101.93;40.78;;;;;;;;;;5111484;28;20032;-74
2023/12/18 10:52:09;;;;;;;124.47;42.88;;;;;;;;;;5112359;28;20376;-75
2023/12/18 10:54:36;;;;;;;101.93;43.25;;;;;;;;;;5111725;28;20129;-73
2023/12/18 10:57:03;;;;;;;100.22;42.03;;;;;;;;;;5111714;28;20052;-75
2023/12/18 10:59:30;;;;;;;100.35;41.03;;;;;;;;;;5111893;28;20106;-74
2023/12/18 11:01:57;;;;;;;107.72;42.78;;;;;;;;;;5112425;28;20023;-74
2023/12/18 11:04:23;;;;;;;99.93;42.67;;;;;;;;;;5112008;28;20034;-74
2023/12/18 11:06:50;;;;;;;97.10;39.60;;;;;;;;;;5111477;28;20659;-74
2023/12/18 11:09:16;;;;;;;97.72;42.30;;;;;;;;;;5111597;28;20015;-74
2023/12/18 11:11:42;;;;;;;97.18;41.20;;;;;;;;;;5111398;28;20020;-75
2023/12/18 11:14:08;;;;;;;103.47;41.78;;;;;;;;;;5111986;28;20114;-75
2023/12/18 11:16:51;;;;;;;96.43;40.65;;;;;;;;;;5111473;28;20117;-74
2023/12/18 11:19:27;;;;;;;105.40;46.63;;;;;;;;;;5111494;28;20027;-74
2023/12/18 11:21:54;;;;;;;107.40;41.65;;;;;;;;;;5111552;28;20032;-74
2023/12/18 11:24:20;;;;;;;92.22;40.30;;;;;;;;;;5109947;28;20020;-72
2023/12/18 11:26:46;;;;;;;108.63;42.80;;;;;;;;;;5111696;28;20030;-74
2023/12/18 11:29:32;;;;;;;105.30;43.50;;;;;;;;;;5108969;28;20100;-74
2023/12/18 11:31:58;;;;;;;104.65;43.38;;;;;;;;;;5107928;28;20692;-74
2023/12/18 11:34:25;;;;;;;100.55;42.13;;;;;;;;;;5111878;28;20016;-74
2023/12/18 11:36:51;;;;;;;116.00;43.42;;;;;;;;;;5109957;28;20055;-73
2023/12/18 11:39:20;;;;;;;106.32;42.65;;;;;;;;;;5112054;28;20023;-74
2023/12/18 11:41:47;;;;;;;104.70;43.72;;;;;;;;;;5110085;28;20055;-75
2023/12/18 11:44:15;;;;;;;120.00;41.95;;;;;;;;;;5110045;28;20020;-73
2023/12/18 11:46:41;;;;;;;118.78;44.40;;;;;;;;;;5110841;28;20016;-74
2023/12/18 11:49:08;;;;;;;111.45;46.20;;;;;;;;;;5111915;28;20024;-76
2023/12/18 11:51:34;;;;;;;112.03;44.97;;;;;;;;;;5111461;28;20471;-74
2023/12/18 11:54:01;;;;;;;113.80;45.10;;;;;;;;;;5114154;28;20390;-75
2023/12/18 11:56:28;;;;;;;94.10;43.50;;;;;;;;;;5112118;28;20367;-72
2023/12/18 11:58:54;;;;;;;115.82;44.55;;;;;;;;;;5113541;28;20027;-75
2023/12/18 12:01:21;;;;;;;108.47;45.65;;;;;;;;;;5114125;28;20088;-74
2023/12/18 12:03:47;;;;;;;99.03;44.30;;;;;;;;;;5114683;28;20046;-75
2023/12/18 12:06:14;;;;;;;112.95;46.70;;;;;;;;;;5113071;28;20016;-73
2023/12/18 12:08:58;;;;;;;122.65;49.35;;;;;;;;;;5116676;28;20019;-74
2023/12/18 12:11:24;;;;;;;100.30;44.53;;;;;;;;;;5116510;28;20030;-74
2023/12/18 12:13:56;;;;;;;102.85;45.05;;;;;;;;;;5115944;28;20028;-74
2023/12/18 12:16:23;;;;;;;105.85;45.70;;;;;;;;;;5115187;28;20041;-74
2023/12/18 12:18:51;;;;;;;106.82;45.97;;;;;;;;;;5114504;28;20122;-75
2023/12/18 12:21:17;;;;;;;108.80;45.22;;;;;;;;;;5114346;28;20034;-74
2023/12/18 12:23:46;;;;;;;112.82;45.63;;;;;;;;;;5114202;28;20098;-73
2023/12/18 12:26:13;;;;;;;106.05;44.00;;;;;;;;;;5114464;28;20020;-75
2023/12/18 12:28:42;;;;;;;101.22;44.15;;;;;;;;;;5114339;28;20023;-74
2023/12/18 12:31:08;;;;;;;116.35;44.80;;;;;;;;;;5114190;28;20406;-74
2023/12/18 12:33:43;;;;;;;103.60;44.67;;;;;;;;;;5114150;28;20020;-74
2023/12/18 12:36:09;;;;;;;100.25;44.85;;;;;;;;;;5114624;28;20096;-74
2023/12/18 12:38:37;;;;;;;108.18;43.03;;;;;;;;;;5115260;28;20046;-75
2023/12/18 12:41:05;;;;;;;106.00;44.72;;;;;;;;;;5115364;28;20020;-76
2023/12/18 12:43:31;;;;;;;106.47;43.63;;;;;;;;;;5114281;28;20386;-74
2023/12/18 12:45:57;;;;;;;115.43;45.72;;;;;;;;;;5114547;28;20030;-73
2023/12/18 12:48:23;;;;;;;114.78;46.67;;;;;;;;;;5114343;28;20023;-74
2023/12/18 12:50:49;;;;;;;104.10;43.55;;;;;;;;;;5113741;28;20100;-78
2023/12/18 12:53:15;;;;;;;103.07;44.90;;;;;;;;;;5105898;28;20028;-73
2023/12/18 12:55:42;;;;;;;91.95;43.47;;;;;;;;;;5105716;28;20055;-74
2023/12/18 12:58:09;;;;;;;116.57;44.92;;;;;;;;;;5106790;28;20028;-74
2023/12/18 13:00:36;;;;;;;107.15;44.80;;;;;;;;;;5092283;28;20040;-74
2023/12/18 13:03:02;;;;;;;103.70;42.50;;;;;;;;;;5091716;28;20028;-74
2023/12/18 13:05:28;;;;;;;104.80;44.72;;;;;;;;;;5092634;28;20059;-73
2023/12/18 13:07:55;;;;;;;100.18;43.72;;;;;;;;;;5096403;28;20036;-74
2023/12/18 13:10:25;;;;;;;110.15;43.83;;;;;;;;;;5113597;28;20022;-74
2023/12/18 13:12:51;;;;;;;102.35;43.47;;;;;;;;;;5113936;28;20020;-73
2023/12/18 13:15:17;;;;;;;105.88;44.28;;;;;;;;;;5112930;28;20016;-74
2023/12/18 13:17:45;;;;;;;111.18;43.40;;;;;;;;;;5113011;28;20027;-75
2023/12/18 13:20:10;;;;;;;106.20;43.35;;;;;;;;;;5112657;28;20115;-73
2023/12/18 13:22:36;;;;;;;93.85;42.78;;;;;;;;;;5112577;28;20063;-75
2023/12/18 13:25:02;;;;;;;99.80;43.03;;;;;;;;;;5113268;28;20028;-74
2023/12/18 13:27:29;;;;;;;96.50;43.97;;;;;;;;;;5112719;28;20033;-73
2023/12/18 13:29:55;;;;;;;114.63;48.13;;;;;;;;;;5112136;28;20031;-76
2023/12/18 13:32:21;;;;;;;111.43;46.30;;;;;;;;;;5112298;28;20031;-75
2023/12/18 13:34:47;;;;;;;98.18;44.97;;;;;;;;;;5112578;28;20023;-75
2023/12/18 13:37:16;;;;;;;112.05;47.47;;;;;;;;;;5112647;28;20027;-74
2023/12/18 13:39:42;;;;;;;102.03;47.35;;;;;;;;;;5111767;28;20506;-75
2023/12/18 13:42:10;;;;;;;106.57;47.88;;;;;;;;;;5112068;28;20460;-75
2023/12/18 13:44:36;;;;;;;114.47;49.38;;;;;;;;;;5112544;28;20415;-73
2023/12/18 13:47:02;;;;;;;114.55;50.65;;;;;;;;;;5112586;28;20039;-75
2023/12/18 13:49:28;;;;;;;113.13;49.15;;;;;;;;;;5113002;28;20428;-75
2023/12/18 13:51:54;;;;;;;125.10;49.60;;;;;;;;;;5112955;28;20031;-75
2023/12/18 13:54:21;;;;;;;121.78;49.83;;;;;;;;;;5112877;28;20094;-75
2023/12/18 13:56:47;;;;;;;125.28;50.47;;;;;;;;;;5112567;28;20023;-73
2023/12/18 13:59:13;;;;;;;113.10;48.65;;;;;;;;;;5112531;28;20027;-74
2023/12/18 14:01:40;;;;;;;126.00;50.05;;;;;;;;;;5112208;28;20049;-74
2023/12/18 14:04:06;;;;;;;119.88;49.40;;;;;;;;;;5113460;28;20537;-76
2023/12/18 14:06:32;;;;;;;118.70;47.97;;;;;;;;;;5114737;28;20056;-75